createdAt,value
2024-04-17T00:00:07.498Z,1.30
2024-04-17T00:02:35.460Z,4.80
2024-04-17T00:05:03.353Z,1.40
2024-04-17T00:07:31.194Z,1.40
2024-04-17T00:09:58.966Z,1.70
2024-04-17T00:12:26.700Z,1.50
2024-04-17T00:14:54.638Z,2.80
2024-04-17T00:17:22.565Z,2.40
2024-04-17T00:19:50.655Z,2.20
2024-04-17T00:22:18.716Z,1.50
2024-04-17T00:24:46.665Z,1.80
2024-04-17T00:27:14.464Z,1.80
2024-04-17T00:29:42.380Z,1.60
2024-04-17T00:32:10.146Z,1.70
2024-04-17T00:34:38.065Z,1.30
2024-04-17T00:37:05.918Z,2.80
2024-04-17T00:39:33.743Z,1.90
2024-04-17T00:42:01.596Z,2.70
2024-04-17T00:44:29.739Z,1.90
2024-04-17T00:46:57.700Z,1.10
2024-04-17T00:49:25.613Z,2.90
2024-04-17T00:51:53.714Z,2.10
2024-04-17T00:54:22.191Z,1.10
2024-04-17T00:56:50.108Z,1.40
2024-04-17T00:59:17.971Z,1.60
2024-04-17T01:01:45.827Z,1.90
2024-04-17T01:04:13.862Z,4.00
2024-04-17T01:06:43.727Z,0.80
2024-04-17T01:09:11.469Z,1.40
2024-04-17T01:11:40.567Z,2.00
2024-04-17T01:14:09.899Z,1.30
2024-04-17T01:16:38.066Z,1.40
2024-04-17T01:19:06.285Z,1.30
2024-04-17T01:21:34.688Z,1.40
2024-04-17T01:24:02.310Z,1.70
2024-04-17T01:26:30.049Z,2.20
2024-04-17T01:28:57.998Z,1.00
2024-04-17T01:31:25.660Z,1.90
2024-04-17T01:33:53.356Z,2.00
2024-04-17T01:36:21.059Z,1.70
2024-04-17T01:38:48.959Z,4.30
2024-04-17T01:41:16.720Z,3.50
2024-04-17T01:43:44.382Z,3.70
2024-04-17T01:46:12.287Z,1.30
2024-04-17T01:48:40.056Z,2.50
2024-04-17T01:51:07.749Z,1.10
2024-04-17T01:53:35.660Z,1.60
2024-04-17T01:56:03.504Z,1.70
2024-04-17T01:58:31.318Z,1.50
2024-04-17T02:01:05.088Z,0.90
2024-04-17T02:03:34.724Z,0.90
2024-04-17T02:06:02.406Z,1.20
2024-04-17T02:08:30.144Z,2.50
2024-04-17T02:10:57.796Z,1.50
2024-04-17T02:13:25.530Z,1.60
2024-04-17T02:15:53.165Z,2.30
2024-04-17T02:18:21.463Z,1.70
2024-04-17T02:20:49.226Z,1.30
2024-04-17T02:23:16.844Z,1.80
2024-04-17T02:25:44.592Z,1.80
2024-04-17T02:28:12.503Z,0.90
2024-04-17T02:30:40.788Z,2.40
2024-04-17T02:33:09.729Z,1.40
2024-04-17T02:35:37.520Z,1.80
2024-04-17T02:38:05.409Z,1.80
2024-04-17T02:40:33.202Z,3.90
2024-04-17T02:43:01.376Z,1.30
2024-04-17T02:45:29.107Z,3.30
2024-04-17T02:47:57.517Z,2.70
2024-04-17T02:50:25.213Z,1.50
2024-04-17T02:52:52.899Z,3.50
2024-04-17T02:55:20.717Z,1.40
2024-04-17T02:57:48.489Z,2.70
2024-04-17T03:00:18.600Z,3.10
2024-04-17T03:02:46.288Z,2.80
2024-04-17T03:05:14.197Z,2.20
2024-04-17T03:07:45.390Z,2.50
2024-04-17T03:10:13.245Z,3.70
2024-04-17T03:12:40.957Z,1.10
2024-04-17T03:15:08.706Z,3.30
2024-04-17T03:17:36.442Z,2.90
2024-04-17T03:20:04.990Z,2.30
2024-04-17T03:22:32.906Z,2.50
2024-04-17T03:25:00.695Z,2.30
2024-04-17T03:27:28.433Z,2.70
2024-04-17T03:29:56.316Z,1.60
2024-04-17T03:32:24.292Z,1.80
2024-04-17T03:34:52.366Z,1.40
2024-04-17T03:37:20.256Z,3.30
2024-04-17T03:39:48.163Z,1.30
2024-04-17T03:42:17.390Z,1.90
2024-04-17T03:44:46.293Z,2.00
2024-04-17T03:47:14.149Z,1.10
2024-04-17T03:49:42.107Z,3.00
2024-04-17T03:52:10.009Z,1.50
2024-04-17T03:54:37.849Z,2.10
2024-04-17T03:57:05.716Z,11.30
2024-04-17T03:59:33.783Z,1.40
2024-04-17T04:02:06.451Z,1.50
2024-04-17T04:04:34.738Z,2.20
2024-04-17T04:07:02.903Z,1.40
2024-04-17T04:09:30.756Z,1.00
2024-04-17T04:11:58.698Z,2.40
2024-04-17T04:14:26.642Z,1.40
2024-04-17T04:16:54.896Z,1.00
2024-04-17T04:19:23.066Z,2.20
2024-04-17T04:21:50.916Z,2.20
2024-04-17T04:24:18.788Z,2.30
2024-04-17T04:26:46.578Z,1.30
2024-04-17T04:29:14.315Z,1.60
2024-04-17T04:31:42.236Z,2.10
2024-04-17T04:34:10.101Z,1.70
2024-04-17T04:36:37.935Z,2.10
2024-04-17T04:39:06.219Z,1.60
2024-04-17T04:41:34.239Z,2.30
2024-04-17T04:44:02.076Z,2.60
2024-04-17T04:46:29.966Z,2.00
2024-04-17T04:48:57.827Z,1.70
2024-04-17T04:51:25.788Z,1.40
2024-04-17T04:53:53.657Z,2.00
2024-04-17T04:56:21.522Z,1.20
2024-04-17T04:58:49.564Z,1.00
2024-04-17T05:01:18.778Z,1.30
2024-04-17T05:03:46.634Z,1.30
2024-04-17T05:06:14.473Z,1.80
2024-04-17T05:08:42.307Z,1.50
2024-04-17T05:11:13.055Z,1.50
2024-04-17T05:13:41.110Z,1.60
2024-04-17T05:16:10.921Z,1.20
2024-04-17T05:18:39.054Z,1.10
2024-04-17T05:21:06.994Z,2.00
2024-04-17T05:23:34.809Z,1.50
2024-04-17T05:26:02.753Z,2.60
2024-04-17T05:28:30.670Z,2.00
2024-04-17T05:30:59.606Z,1.20
2024-04-17T05:33:27.818Z,2.20
2024-04-17T05:35:55.606Z,1.40
2024-04-17T05:38:23.559Z,1.00
2024-04-17T05:40:51.491Z,1.20
2024-04-17T05:43:19.434Z,1.50
2024-04-17T05:45:47.682Z,1.20
2024-04-17T05:48:15.725Z,1.70
2024-04-17T05:50:43.699Z,1.10
2024-04-17T05:53:11.465Z,1.40
2024-04-17T05:55:42.281Z,1.10
2024-04-17T05:58:10.142Z,5.60
2024-04-17T06:00:38.205Z,2.20
2024-04-17T06:03:06.411Z,1.80
2024-04-17T06:05:34.974Z,1.30
2024-04-17T06:08:02.861Z,1.80
2024-04-17T06:10:30.926Z,1.70
2024-04-17T06:12:59.364Z,1.90
2024-04-17T06:15:27.188Z,1.60
2024-04-17T06:17:57.047Z,1.40
2024-04-17T06:20:26.548Z,1.00
2024-04-17T06:22:54.341Z,1.00
2024-04-17T06:25:22.292Z,1.30
2024-04-17T06:27:50.297Z,1.50
2024-04-17T06:30:18.645Z,2.70
2024-04-17T06:32:46.651Z,3.00
2024-04-17T06:35:14.967Z,1.20
2024-04-17T06:37:42.905Z,1.30
2024-04-17T06:40:10.863Z,1.40
2024-04-17T06:42:38.892Z,1.20
2024-04-17T06:45:07.658Z,2.20
2024-04-17T06:47:35.501Z,1.40
2024-04-17T06:50:04.243Z,3.60
2024-04-17T06:52:32.238Z,2.40
2024-04-17T06:55:00.202Z,1.50
2024-04-17T06:57:28.124Z,1.20
2024-04-17T06:59:56.082Z,2.20
2024-04-17T07:02:24.216Z,2.20
2024-04-17T07:04:52.413Z,1.40
2024-04-17T07:07:20.739Z,1.10
2024-04-17T07:09:48.663Z,1.20
2024-04-17T07:12:17.550Z,1.60
2024-04-17T07:14:45.680Z,1.00
2024-04-17T07:17:15.414Z,1.50
2024-04-17T07:19:44.556Z,1.30
2024-04-17T07:22:12.422Z,1.90
2024-04-17T07:24:40.280Z,2.00
2024-04-17T07:27:08.285Z,3.60
2024-04-17T07:29:36.139Z,3.70
2024-04-17T07:32:04.493Z,1.30
2024-04-17T07:34:32.588Z,1.40
2024-04-17T07:37:00.305Z,1.20
2024-04-17T07:39:28.139Z,2.00
2024-04-17T07:41:56.738Z,1.50
2024-04-17T07:44:24.862Z,2.10
2024-04-17T07:46:52.698Z,1.50
2024-04-17T07:49:20.519Z,1.70
2024-04-17T07:51:48.466Z,1.40
2024-04-17T07:54:16.297Z,1.40
2024-04-17T07:56:44.504Z,2.30
2024-04-17T07:59:12.384Z,1.40
2024-04-17T08:01:40.330Z,1.10
2024-04-17T08:04:08.235Z,1.40
2024-04-17T08:06:36.424Z,1.40
2024-04-17T08:09:04.564Z,2.50
2024-04-17T08:11:38.257Z,1.20
2024-04-17T08:14:07.139Z,4.00
2024-04-17T08:16:35.158Z,2.30
2024-04-17T08:19:03.077Z,1.40
2024-04-17T08:21:32.157Z,2.90
2024-04-17T08:24:00.166Z,1.40
2024-04-17T08:26:28.070Z,1.30
2024-04-17T08:28:56.187Z,1.60
2024-04-17T08:31:24.353Z,5.20
2024-04-17T08:33:52.238Z,3.10
2024-04-17T08:36:20.303Z,1.50
2024-04-17T08:38:48.249Z,1.60
2024-04-17T08:41:15.996Z,1.40
2024-04-17T08:43:45.133Z,2.40
2024-04-17T08:46:14.702Z,2.30
2024-04-17T08:48:44.044Z,1.80
2024-04-17T08:51:12.988Z,1.70
2024-04-17T08:53:41.478Z,2.40
2024-04-17T08:56:10.189Z,1.80
2024-04-17T08:58:38.287Z,2.60
2024-04-17T09:01:07.912Z,2.40
2024-04-17T09:03:39.621Z,2.00
2024-04-17T09:06:10.239Z,2.60
2024-04-17T09:08:38.613Z,2.70
2024-04-17T09:11:09.344Z,2.10
2024-04-17T09:13:37.489Z,1.50
2024-04-17T09:16:05.454Z,6.20
2024-04-17T09:18:34.323Z,1.80
2024-04-17T09:21:02.177Z,2.90
2024-04-17T09:23:30.042Z,4.50
2024-04-17T09:25:58.085Z,4.30
2024-04-17T09:28:25.977Z,3.40
2024-04-17T09:30:53.973Z,3.10
2024-04-17T09:33:21.944Z,1.60
2024-04-17T09:35:52.614Z,2.80
2024-04-17T09:38:21.387Z,2.90
2024-04-17T09:40:49.166Z,2.70
2024-04-17T09:43:29.256Z,4.30
2024-04-17T09:46:09.057Z,2.20
2024-04-17T09:48:38.693Z,1.90
2024-04-17T09:51:11.949Z,2.30
2024-04-17T09:53:50.980Z,2.30
2024-04-17T09:56:19.728Z,2.30
2024-04-17T09:58:56.807Z,2.10
2024-04-17T10:01:33.157Z,2.20
2024-04-17T10:04:02.742Z,3.40
2024-04-17T10:06:31.775Z,3.30
2024-04-17T10:09:00.320Z,2.80
2024-04-17T10:11:28.871Z,4.50
2024-04-17T10:13:59.212Z,2.50
2024-04-17T10:16:27.400Z,2.00
2024-04-17T10:18:55.563Z,2.70
2024-04-17T10:21:27.386Z,2.60
2024-04-17T10:24:02.458Z,2.40
2024-04-17T10:26:59.397Z,2.40
2024-04-17T10:29:29.427Z,2.30
2024-04-17T10:31:57.415Z,2.00
2024-04-17T10:34:27.535Z,2.70
2024-04-17T10:36:59.888Z,3.00
2024-04-17T10:39:28.878Z,3.80
2024-04-17T10:42:01.250Z,4.40
2024-04-17T10:44:29.706Z,2.60
2024-04-17T10:47:07.232Z,1.80
2024-04-17T10:49:41.424Z,2.10
2024-04-17T10:52:10.260Z,2.80
2024-04-17T10:54:38.780Z,5.10
2024-04-17T10:57:07.260Z,2.10
2024-04-17T10:59:35.206Z,4.50
2024-04-17T11:02:03.145Z,5.00
2024-04-17T11:04:31.423Z,4.30
2024-04-17T11:06:59.363Z,2.50
2024-04-17T11:09:27.239Z,4.10
2024-04-17T11:11:55.955Z,3.10
2024-04-17T11:14:23.927Z,4.20
2024-04-17T11:16:51.796Z,4.40
2024-04-17T11:19:19.893Z,2.50
2024-04-17T11:21:50.349Z,3.30
2024-04-17T11:24:19.219Z,3.90
2024-04-17T11:26:47.803Z,3.50
2024-04-17T11:29:33.056Z,2.90
2024-04-17T11:32:06.288Z,3.20
2024-04-17T11:34:34.216Z,3.70
2024-04-17T11:37:08.614Z,2.70
2024-04-17T11:39:39.139Z,2.20
2024-04-17T11:42:10.504Z,1.90
2024-04-17T11:44:39.215Z,3.40
2024-04-17T11:47:15.170Z,3.20
2024-04-17T11:49:43.771Z,2.50
2024-04-17T11:52:13.376Z,2.30
2024-04-17T11:54:41.758Z,2.30
2024-04-17T11:57:14.483Z,4.80
2024-04-17T11:59:45.680Z,5.50
2024-04-17T12:02:13.388Z,4.10
2024-04-17T12:04:43.712Z,6.30
2024-04-17T12:07:11.967Z,6.10
2024-04-17T12:09:39.882Z,3.20
2024-04-17T12:12:07.786Z,3.80
2024-04-17T12:14:35.613Z,4.40
2024-04-17T12:17:03.521Z,3.90
2024-04-17T12:19:31.489Z,4.80
2024-04-17T12:22:00.683Z,4.20
2024-04-17T12:24:48.654Z,4.70
2024-04-17T12:27:17.230Z,3.60
2024-04-17T12:29:45.161Z,4.10
2024-04-17T12:32:13.141Z,3.00
2024-04-17T12:34:41.134Z,4.90
2024-04-17T12:37:11.047Z,3.20
2024-04-17T12:39:39.162Z,3.90
2024-04-17T12:42:07.289Z,4.80
2024-04-17T12:44:35.137Z,3.80
2024-04-17T12:47:03.620Z,4.30
2024-04-17T12:49:31.540Z,3.80
2024-04-17T12:51:59.814Z,4.20
2024-04-17T12:54:27.752Z,5.10
2024-04-17T12:56:55.567Z,5.30
2024-04-17T12:59:23.349Z,6.80
2024-04-17T13:01:51.159Z,8.00
2024-04-17T13:04:19.220Z,6.20
2024-04-17T13:06:49.915Z,7.60
2024-04-17T13:09:17.901Z,5.90
2024-04-17T13:11:46.482Z,5.10
2024-04-17T13:14:14.198Z,6.90
2024-04-17T13:16:41.954Z,8.20
2024-04-17T13:19:09.680Z,7.00
2024-04-17T13:21:37.653Z,6.90
2024-04-17T13:24:06.551Z,6.60
2024-04-17T13:26:34.569Z,5.30
2024-04-17T13:29:02.559Z,6.40
2024-04-17T13:31:30.508Z,5.00
2024-04-17T13:33:58.542Z,8.60
2024-04-17T13:36:26.480Z,7.50
2024-04-17T13:38:54.850Z,7.50
2024-04-17T13:41:22.789Z,10.60
2024-04-17T13:43:50.608Z,7.80
2024-04-17T13:46:19.815Z,8.60
2024-04-17T13:48:49.059Z,9.10
2024-04-17T13:51:19.578Z,7.10
2024-04-17T13:53:53.825Z,7.70
2024-04-17T13:56:23.552Z,9.80
2024-04-17T13:58:51.531Z,7.90
2024-04-17T14:01:19.434Z,7.50
2024-04-17T14:03:47.396Z,7.60
2024-04-17T14:06:15.468Z,7.80
2024-04-17T14:08:43.447Z,9.20
2024-04-17T14:11:11.227Z,10.50
2024-04-17T14:13:39.111Z,10.30
2024-04-17T14:16:07.504Z,7.40
2024-04-17T14:18:35.783Z,8.80
2024-04-17T14:21:07.778Z,7.40
2024-04-17T14:23:35.590Z,10.30
2024-04-17T14:26:03.518Z,13.20
2024-04-17T14:28:32.164Z,9.40
2024-04-17T14:31:03.983Z,8.60
2024-04-17T14:33:34.668Z,8.60
2024-04-17T14:36:07.000Z,9.30
2024-04-17T14:38:39.793Z,8.50
2024-04-17T14:41:08.743Z,9.60
2024-04-17T14:43:37.282Z,9.70
2024-04-17T14:46:07.096Z,9.90
2024-04-17T14:48:35.735Z,8.90
2024-04-17T14:51:08.830Z,11.20
2024-04-17T14:53:40.628Z,8.60
2024-04-17T14:56:09.046Z,9.10
2024-04-17T14:58:38.286Z,10.60
2024-04-17T15:01:08.152Z,10.00
2024-04-17T15:03:37.360Z,8.10
2024-04-17T15:06:07.432Z,10.70
2024-04-17T15:08:36.783Z,11.40
2024-04-17T15:11:09.700Z,12.50
2024-04-17T15:13:38.600Z,11.40
2024-04-17T15:16:11.267Z,10.70
2024-04-17T15:18:43.359Z,9.90
2024-04-17T15:21:13.860Z,10.10
2024-04-17T15:23:45.899Z,8.90
2024-04-17T15:26:15.543Z,9.70
2024-04-17T15:28:43.885Z,9.70
2024-04-17T15:31:16.329Z,10.20
2024-04-17T15:33:48.905Z,8.00
2024-04-17T15:36:17.811Z,9.20
2024-04-17T15:38:48.704Z,10.50
2024-04-17T15:41:16.458Z,10.00
2024-04-17T15:43:45.691Z,8.10
2024-04-17T15:46:15.456Z,9.20
2024-04-17T15:48:44.798Z,9.90
2024-04-17T15:51:17.659Z,8.50
2024-04-17T15:53:47.201Z,10.30
2024-04-17T15:56:20.250Z,9.50
2024-04-17T15:58:49.821Z,7.70
2024-04-17T16:01:19.025Z,8.60
2024-04-17T16:03:52.420Z,8.80
